Time;durP1;ratioP1;P1;durP2;ratioP2;P2;SDS_P1;SDS_P2;PMS_P1;PMS_P2;Temp;Humidity;BMP_temperature;BMP_pressure;BME280_temperature;BME280_humidity;BME280_pressure;Samples;Min_cycle;Max_cycle;Signal;HPM_P1;HPM_P2
2022/06/10 00:01:14;;;;;;;11.25;2.25;;;17.30;73.30;;;;;;5018029;28;20049;-89
2022/06/10 00:03:42;;;;;;;6.20;1.67;;;17.30;73.30;;;;;;5032878;28;20056;-88
2022/06/10 00:06:11;;;;;;;7.82;2.03;;;17.30;73.30;;;;;;5032621;28;20053;-88
2022/06/10 00:08:41;;;;;;;7.57;2.00;;;17.30;73.30;;;;;;5032899;28;20057;-89
2022/06/10 00:11:10;;;;;;;11.68;2.33;;;17.30;73.30;;;;;;5030493;28;20602;-88
2022/06/10 00:13:40;;;;;;;15.07;2.47;;;17.30;73.30;;;;;;5030863;28;20494;-88
2022/06/10 00:16:08;;;;;;;8.85;2.03;;;17.30;73.20;;;;;;5031461;28;20045;-90
2022/06/10 00:18:35;;;;;;;10.25;2.25;;;17.20;73.20;;;;;;5033911;28;20057;-88
2022/06/10 00:21:06;;;;;;;7.82;1.90;;;17.20;73.20;;;;;;5033573;28;20050;-89
2022/06/10 00:23:34;;;;;;;10.40;2.22;;;17.30;73.10;;;;;;5032264;28;20512;-89
2022/06/10 00:26:01;;;;;;;12.30;2.30;;;17.20;73.00;;;;;;5031178;28;20056;-89
2022/06/10 00:28:28;;;;;;;13.35;2.10;;;17.30;73.00;;;;;;5032577;28;20049;-88
2022/06/10 00:30:55;;;;;;;13.32;2.42;;;17.20;73.00;;;;;;5030987;28;20041;-88
2022/06/10 00:33:23;;;;;;;11.25;2.70;;;17.20;72.90;;;;;;5032604;28;20119;-89
2022/06/10 00:35:50;;;;;;;9.43;2.22;;;17.20;72.90;;;;;;5032044;28;20061;-89
2022/06/10 00:38:18;;;;;;;14.40;2.75;;;17.20;72.90;;;;;;5033496;28;20498;-88
2022/06/10 00:40:53;;;;;;;12.38;2.33;;;17.20;72.80;;;;;;5024656;28;20049;-88
2022/06/10 00:43:26;;;;;;;9.25;2.17;;;17.20;72.80;;;;;;5030202;28;20045;-89
2022/06/10 00:45:59;;;;;;;11.32;2.38;;;17.20;72.70;;;;;;5030599;28;20050;-89
2022/06/10 00:48:28;;;;;;;9.55;2.20;;;17.20;72.70;;;;;;5012866;28;20103;-89
2022/06/10 00:50:58;;;;;;;11.52;2.47;;;17.20;72.60;;;;;;5032631;28;20122;-89
2022/06/10 00:53:32;;;;;;;10.02;2.47;;;17.10;72.60;;;;;;5030457;28;20053;-91
2022/06/10 00:56:04;;;;;;;8.65;2.13;;;17.10;72.60;;;;;;5014441;28;20048;-89
2022/06/10 00:58:47;;;;;;;10.02;2.03;;;17.20;72.60;;;;;;5031257;28;20045;-88
2022/06/10 01:01:22;;;;;;;8.82;2.30;;;17.10;72.50;;;;;;5019076;28;20057;-88
2022/06/10 01:03:50;;;;;;;9.85;2.35;;;17.10;72.50;;;;;;5031820;28;20053;-89
2022/06/10 01:06:17;;;;;;;12.30;2.20;;;17.10;72.50;;;;;;5033629;28;20056;-89
2022/06/10 01:08:46;;;;;;;8.93;2.30;;;17.10;72.60;;;;;;5014079;28;20060;-89
2022/06/10 01:11:32;;;;;;;11.55;2.25;;;17.10;72.50;;;;;;5012475;28;20057;-89
2022/06/10 01:14:14;;;;;;;10.48;2.20;;;17.10;72.50;;;;;;5029129;28;20042;-89
2022/06/10 01:17:01;;;;;;;8.75;1.92;;;17.10;72.50;;;;;;5012126;28;20103;-90
2022/06/10 01:20:01;;;;;;;12.10;2.53;;;17.10;72.40;;;;;;5030323;28;20092;-89
2022/06/10 01:23:00;;;;;;;11.48;2.53;;;17.10;72.40;;;;;;4996525;28;20414;-89
2022/06/10 01:25:52;;;;;;;9.45;2.17;;;17.10;72.40;;;;;;5018305;28;20103;-89
2022/06/10 01:29:06;;;;;;;9.35;2.38;;;17.10;72.50;;;;;;5018548;28;20045;-89
2022/06/10 01:32:17;;;;;;;10.57;2.45;;;17.10;72.50;;;;;;5002284;28;20042;-88
2022/06/10 01:35:01;;;;;;;10.20;2.20;;;17.10;72.60;;;;;;4972225;28;20059;-90
2022/06/10 01:37:36;;;;;;;12.63;2.17;;;17.10;72.60;;;;;;4971558;28;20432;-89
2022/06/10 01:40:28;;;;;;;11.45;2.20;;;17.10;72.60;;;;;;4972243;28;20050;-91
2022/06/10 01:43:12;;;;;;;12.80;2.08;;;17.10;72.70;;;;;;4971529;28;20740;-89
2022/06/10 01:45:49;;;;;;;10.20;2.58;;;17.00;72.70;;;;;;4953610;28;20047;-89
2022/06/10 01:48:45;;;;;;;10.98;2.35;;;17.10;72.70;;;;;;4966843;28;20066;-89
2022/06/10 01:51:21;;;;;;;9.02;2.28;;;17.10;72.70;;;;;;4970410;28;20066;-88
2022/06/10 01:54:01;;;;;;;12.55;2.70;;;17.10;72.80;;;;;;4990861;28;20046;-89
2022/06/10 01:56:34;;;;;;;13.60;2.60;;;17.00;72.80;;;;;;4991277;28;20555;-89
2022/06/10 01:59:13;;;;;;;9.52;1.95;;;17.00;72.80;;;;;;4990506;28;20436;-89
2022/06/10 02:01:44;;;;;;;9.52;2.28;;;17.00;72.90;;;;;;4991171;28;20057;-89
2022/06/10 02:04:19;;;;;;;10.90;2.60;;;17.00;72.90;;;;;;4990856;28;20470;-90
2022/06/10 02:06:52;;;;;;;10.32;2.55;;;17.00;73.00;;;;;;5013304;28;20110;-88
2022/06/10 02:09:24;;;;;;;11.60;2.47;;;17.00;73.00;;;;;;5026374;28;20049;-89
2022/06/10 02:11:57;;;;;;;10.65;2.67;;;17.00;73.00;;;;;;5029176;28;20050;-89
2022/06/10 02:15:10;;;;;;;13.88;2.95;;;17.00;73.00;;;;;;5013293;28;20514;-89
2022/06/10 02:17:48;;;;;;;10.00;2.10;;;17.00;73.10;;;;;;5027755;28;20060;-89
2022/06/10 02:20:22;;;;;;;9.43;2.05;;;17.00;73.20;;;;;;5030228;28;20087;-89
2022/06/10 02:22:50;;;;;;;8.40;2.33;;;17.00;73.20;;;;;;5028331;28;20049;-89
2022/06/10 02:25:51;;;;;;;9.98;2.17;;;16.90;73.30;;;;;;5030242;28;20103;-89
2022/06/10 02:28:25;;;;;;;17.30;2.30;;;17.00;73.30;;;;;;5012689;28;20454;-89
2022/06/10 02:31:03;;;;;;;11.60;2.13;;;17.00;73.30;;;;;;5029855;28;20884;-87
2022/06/10 02:33:30;;;;;;;10.18;2.10;;;17.00;73.30;;;;;;5012567;28;20054;-88
2022/06/10 02:36:11;;;;;;;9.25;2.63;;;16.90;73.40;;;;;;5028315;28;20048;-89
2022/06/10 02:38:49;;;;;;;13.52;2.90;;;16.90;73.40;;;;;;5027380;28;20072;-89
2022/06/10 02:41:22;;;;;;;8.00;1.98;;;16.90;73.40;;;;;;5028668;28;20046;-89
2022/06/10 02:44:07;;;;;;;7.95;2.08;;;16.90;73.50;;;;;;5028376;28;20049;-89
2022/06/10 02:46:49;;;;;;;9.68;2.33;;;16.90;73.50;;;;;;5028637;28;20421;-89
2022/06/10 02:49:18;;;;;;;12.07;2.63;;;16.90;73.50;;;;;;5030170;28;20045;-90
2022/06/10 02:51:46;;;;;;;12.68;2.50;;;16.90;73.60;;;;;;5029736;28;20066;-89
2022/06/10 02:54:27;;;;;;;8.52;2.00;;;16.90;73.60;;;;;;5032211;28;20053;-90
2022/06/10 02:56:54;;;;;;;12.82;2.35;;;16.90;73.60;;;;;;5023279;28;20046;-88
2022/06/10 03:02:20;;;;;;;10.07;2.22;;;16.90;73.70;;;;;;5028593;28;20382;-90
2022/06/10 03:05:01;;;;;;;11.43;2.53;;;16.90;73.70;;;;;;5032838;28;20042;-90
2022/06/10 03:07:52;;;;;;;13.27;2.70;;;16.90;73.70;;;;;;5034204;28;20045;-89
2022/06/10 03:10:58;;;;;;;12.10;2.67;;;16.90;73.70;;;;;;5014999;28;20111;-89
2022/06/10 03:13:51;;;;;;;11.10;2.72;;;16.90;73.70;;;;;;4998424;28;20053;-89
2022/06/10 03:16:57;;;;;;;10.23;2.50;;;16.90;73.80;;;;;;5016260;28;20049;-89
2022/06/10 03:19:31;;;;;;;9.32;2.97;;;16.90;73.80;;;;;;5002919;28;20532;-90
2022/06/10 03:22:10;;;;;;;;;;;16.90;73.80;;;;;;5035372;28;20041;-90
2022/06/10 03:24:49;;;;;;;11.93;2.67;;;16.90;73.90;;;;;;5035393;28;19967;-89
2022/06/10 03:27:40;;;;;;;10.40;2.50;;;16.90;73.90;;;;;;5029935;28;20395;-89
2022/06/10 03:30:11;;;;;;;10.50;2.40;;;16.90;73.90;;;;;;5035210;28;20060;-89
2022/06/10 03:33:07;;;;;;;12.13;2.92;;;16.90;74.00;;;;;;5031078;28;20104;-90
2022/06/10 03:35:42;;;;;;;7.55;2.30;;;16.90;74.00;;;;;;5034648;28;20476;-90
2022/06/10 03:38:09;;;;;;;8.70;2.30;;;16.90;74.00;;;;;;5014551;28;20095;-90
2022/06/10 03:40:38;;;;;;;11.00;2.45;;;16.90;74.00;;;;;;5030787;28;20038;-90
2022/06/10 03:43:07;;;;;;;10.00;2.53;;;16.90;74.00;;;;;;5032232;28;20061;-89
2022/06/10 03:45:45;;;;;;;9.73;2.70;;;16.90;74.10;;;;;;5034497;28;20045;-89
2022/06/10 03:48:17;;;;;;;16.60;2.53;;;16.90;74.10;;;;;;5033718;28;20072;-89
2022/06/10 03:50:46;;;;;;;8.55;2.55;;;16.90;74.10;;;;;;5031418;28;20049;-90
2022/06/10 03:53:20;;;;;;;9.95;2.85;;;16.90;74.10;;;;;;5015323;28;20116;-90
2022/06/10 03:55:47;;;;;;;7.97;2.80;;;16.90;74.10;;;;;;5021930;28;20053;-89
2022/06/10 03:58:15;;;;;;;12.07;3.05;;;16.90;74.10;;;;;;5030997;28;20112;-90
2022/06/10 04:00:43;;;;;;;8.60;2.70;;;16.90;74.10;;;;;;5033747;28;20065;-89
2022/06/10 04:03:11;;;;;;;13.13;2.97;;;16.90;74.10;;;;;;5035015;28;20084;-89
2022/06/10 04:05:38;;;;;;;9.95;3.10;;;16.90;74.20;;;;;;5031035;28;20053;-89
2022/06/10 04:08:25;;;;;;;9.73;2.53;;;16.90;74.20;;;;;;5033140;28;20049;-89
2022/06/10 04:10:52;;;;;;;9.80;2.92;;;16.90;74.20;;;;;;5025296;28;20596;-90
2022/06/10 04:13:20;;;;;;;11.68;2.90;;;16.90;74.20;;;;;;5031899;28;20045;-88
2022/06/10 04:15:47;;;;;;;11.35;2.67;;;16.90;74.30;;;;;;5030217;28;20103;-89
2022/06/10 04:18:15;;;;;;;13.23;3.30;;;16.90;74.30;;;;;;5013941;28;20054;-90
2022/06/10 04:20:42;;;;;;;13.57;2.80;;;16.90;74.30;;;;;;5025304;28;20441;-88
2022/06/10 04:23:10;;;;;;;8.88;2.30;;;16.90;74.40;;;;;;5030114;28;20054;-88
2022/06/10 04:25:38;;;;;;;13.00;2.65;;;16.90;74.40;;;;;;5034411;28;20399;-88
2022/06/10 04:28:07;;;;;;;10.32;2.95;;;16.90;74.40;;;;;;5031244;28;20525;-88
2022/06/10 04:30:44;;;;;;;11.38;2.55;;;16.90;74.40;;;;;;5034509;28;20140;-88
2022/06/10 04:33:12;;;;;;;7.38;2.22;;;16.90;74.40;;;;;;5032654;28;20050;-90
2022/06/10 04:35:41;;;;;;;9.05;3.15;;;16.90;74.50;;;;;;5029416;28;20054;-90
2022/06/10 04:38:10;;;;;;;8.27;2.40;;;16.90;74.50;;;;;;5031067;28;20056;-89
2022/06/10 04:40:38;;;;;;;8.57;2.75;;;16.90;74.50;;;;;;5031356;28;20052;-89
2022/06/10 04:43:06;;;;;;;12.52;2.78;;;16.90;74.50;;;;;;5030948;28;20469;-89
2022/06/10 04:45:38;;;;;;;13.82;2.67;;;16.90;74.60;;;;;;5032768;28;20493;-89
2022/06/10 04:48:05;;;;;;;11.13;2.30;;;16.90;74.60;;;;;;5033776;28;20236;-88
2022/06/10 04:50:33;;;;;;;11.90;2.90;;;16.90;74.70;;;;;;5030661;28;20045;-90
2022/06/10 04:53:00;;;;;;;10.95;2.53;;;16.90;74.70;;;;;;5021950;28;20058;-90
2022/06/10 04:55:27;;;;;;;9.38;2.70;;;16.90;74.70;;;;;;5002384;28;20464;-89
2022/06/10 04:57:55;;;;;;;11.13;3.03;;;16.90;74.70;;;;;;5015051;28;20059;-89
2022/06/10 05:00:39;;;;;;;8.13;2.42;;;16.90;74.80;;;;;;5033914;28;20049;-89
2022/06/10 05:03:07;;;;;;;8.98;2.53;;;16.90;74.80;;;;;;5015850;28;20132;-89
2022/06/10 05:05:34;;;;;;;11.60;2.78;;;16.90;74.80;;;;;;5000178;28;20061;-90
2022/06/10 05:08:02;;;;;;;10.75;2.47;;;16.90;74.90;;;;;;5021998;28;20052;-89
2022/06/10 05:10:29;;;;;;;10.45;2.33;;;16.90;74.90;;;;;;5011940;28;20045;-88
2022/06/10 05:12:56;;;;;;;10.65;2.90;;;16.90;74.90;;;;;;5014071;28;20049;-88
2022/06/10 05:15:23;;;;;;;9.43;2.47;;;16.90;75.00;;;;;;5016068;28;20486;-88
2022/06/10 05:17:52;;;;;;;10.77;2.33;;;16.90;75.00;;;;;;5031374;28;20053;-89
2022/06/10 05:20:22;;;;;;;10.60;2.53;;;16.90;75.10;;;;;;5022445;28;20520;-88
2022/06/10 05:22:50;;;;;;;8.20;2.50;;;16.90;75.10;;;;;;5025477;28;20521;-88
2022/06/10 05:25:17;;;;;;;8.75;2.65;;;16.90;75.10;;;;;;5031193;28;20121;-88
2022/06/10 05:27:45;;;;;;;9.90;2.10;;;16.90;75.10;;;;;;5031069;28;20104;-89
2022/06/10 05:30:17;;;;;;;8.27;2.40;;;16.90;75.20;;;;;;5031230;28;20093;-88
2022/06/10 05:32:44;;;;;;;6.47;2.25;;;16.90;75.20;;;;;;5018496;28;20418;-89
2022/06/10 05:35:11;;;;;;;8.88;2.42;;;16.90;75.20;;;;;;5018292;28;20403;-89
2022/06/10 05:37:39;;;;;;;9.88;2.17;;;16.90;75.20;;;;;;5012433;28;20501;-88
2022/06/10 05:40:19;;;;;;;7.57;2.22;;;17.00;75.30;;;;;;5014061;28;20471;-89
2022/06/10 05:42:46;;;;;;;9.88;2.35;;;17.00;75.30;;;;;;4998563;28;20061;-89
2022/06/10 05:45:17;;;;;;;11.13;2.78;;;17.00;75.30;;;;;;5026944;28;20070;-88
2022/06/10 05:47:47;;;;;;;11.15;2.50;;;17.00;75.30;;;;;;5010964;28;20422;-89
2022/06/10 05:50:35;;;;;;;12.90;2.50;;;17.00;75.30;;;;;;5017524;28;20046;-89
2022/06/10 05:53:04;;;;;;;7.45;2.50;;;17.10;75.40;;;;;;5016679;28;20076;-90
2022/06/10 05:55:33;;;;;;;8.23;2.40;;;17.10;75.40;;;;;;4996559;28;20052;-90
2022/06/10 05:58:06;;;;;;;8.23;2.40;;;17.10;75.40;;;;;;5001520;28;20049;-90
2022/06/10 06:00:33;;;;;;;10.82;2.33;;;17.10;75.50;;;;;;5031910;28;20053;-90
2022/06/10 06:03:00;;;;;;;7.03;2.30;;;17.10;75.50;;;;;;5017470;28;20104;-89
2022/06/10 06:05:28;;;;;;;7.93;2.28;;;17.10;75.50;;;;;;5020630;28;20132;-89
2022/06/10 06:07:56;;;;;;;8.50;2.13;;;17.10;75.50;;;;;;5013859;28;20528;-90
2022/06/10 06:10:27;;;;;;;9.30;2.40;;;17.20;75.60;;;;;;5010751;28;20053;-89
2022/06/10 06:12:55;;;;;;;8.65;2.03;;;17.20;75.60;;;;;;5027773;28;20049;-90
2022/06/10 06:15:22;;;;;;;10.82;2.55;;;17.20;75.60;;;;;;5032481;28;20104;-90
2022/06/10 06:17:50;;;;;;;8.52;2.40;;;17.30;75.70;;;;;;5031608;28;20111;-92
2022/06/10 06:20:20;;;;;;;11.82;2.60;;;17.20;75.70;;;;;;5011043;28;20065;-91
2022/06/10 06:22:47;;;;;;;9.38;2.30;;;17.30;75.70;;;;;;5016417;28;20057;-93
2022/06/10 06:25:16;;;;;;;9.68;2.47;;;17.30;75.80;;;;;;5016321;28;20056;-93
2022/06/10 06:27:44;;;;;;;8.30;2.35;;;17.30;75.80;;;;;;5015174;28;20053;-96
2022/06/10 06:30:26;;;;;;;10.73;2.33;;;17.30;75.90;;;;;;4997637;28;20119;-95
2022/06/10 06:32:54;;;;;;;8.25;2.10;;;17.40;76.00;;;;;;5016159;28;20519;-94
2022/06/10 06:35:21;;;;;;;8.13;2.10;;;17.40;75.90;;;;;;5015946;28;20053;-93
2022/06/10 06:37:49;;;;;;;9.82;2.28;;;17.40;76.00;;;;;;5015905;28;20049;-94
2022/06/10 06:40:16;;;;;;;9.55;2.13;;;17.40;76.00;;;;;;5016953;28;20046;-94
2022/06/10 06:42:44;;;;;;;7.30;2.50;;;17.40;76.10;;;;;;5001224;28;20054;-92
2022/06/10 06:45:12;;;;;;;8.18;2.15;;;17.40;76.20;;;;;;5003391;28;20049;-95
2022/06/10 06:47:52;;;;;;;8.63;2.60;;;17.50;76.20;;;;;;5016987;28;20089;-93
2022/06/10 06:50:28;;;;;;;7.55;2.35;;;17.50;76.20;;;;;;5000530;28;20057;-94
2022/06/10 06:52:54;;;;;;;8.40;2.22;;;17.50;76.20;;;;;;5021195;28;20061;-92
2022/06/10 06:55:30;;;;;;;8.20;2.38;;;17.60;76.10;;;;;;5028929;28;20049;-95
2022/06/10 06:57:57;;;;;;;6.25;1.85;;;17.60;76.10;;;;;;5018189;28;20501;-93
2022/06/10 07:00:27;;;;;;;8.25;2.40;;;17.70;76.10;;;;;;5016780;28;20053;-94
2022/06/10 07:02:54;;;;;;;5.32;1.73;;;17.60;76.00;;;;;;5016502;28;20057;-93
2022/06/10 07:05:22;;;;;;;9.23;1.88;;;17.70;75.90;;;;;;5031291;28;20053;-96
2022/06/10 07:07:49;;;;;;;6.63;2.17;;;17.70;75.90;;;;;;5036329;28;20064;-94
2022/06/10 07:10:18;;;;;;;8.55;2.10;;;17.70;75.80;;;;;;5039050;28;20049;-96
2022/06/10 07:12:45;;;;;;;7.40;2.05;;;17.80;75.70;;;;;;5040482;28;20057;-95
2022/06/10 07:15:13;;;;;;;9.02;2.13;;;17.90;75.70;;;;;;5038931;28;20056;-94
2022/06/10 07:17:41;;;;;;;5.13;1.75;;;17.90;75.80;;;;;;5051532;28;20061;-95
2022/06/10 07:20:15;;;;;;;8.65;1.90;;;17.90;75.80;;;;;;5041987;28;20065;-93
2022/06/10 07:22:43;;;;;;;8.80;2.30;;;17.90;75.70;;;;;;5037383;28;20058;-96
2022/06/10 07:25:14;;;;;;;7.40;2.15;;;18.00;75.60;;;;;;5037428;28;20560;-95
2022/06/10 07:27:43;;;;;;;7.07;1.85;;;18.00;75.50;;;;;;5040787;28;20108;-96
2022/06/10 07:30:13;;;;;;;6.78;1.70;;;18.00;75.40;;;;;;5024944;28;20124;-95
2022/06/10 07:32:45;;;;;;;6.50;1.83;;;18.10;75.30;;;;;;5037193;28;20045;-95
2022/06/10 07:35:17;;;;;;;7.38;1.98;;;18.10;75.20;;;;;;5020526;28;20449;-94
2022/06/10 07:37:49;;;;;;;7.22;1.80;;;18.20;75.10;;;;;;5028705;28;20050;-95
2022/06/10 07:43:35;;;;;;;5.25;2.03;;;18.30;75.00;;;;;;5052289;28;20049;-95
2022/06/10 07:46:05;;;;;;;6.72;1.90;;;18.30;74.90;;;;;;5031063;28;20065;-95
2022/06/10 07:48:45;;;;;;;6.63;1.77;;;18.40;74.90;;;;;;5031413;28;20064;-96
2022/06/10 07:51:16;;;;;;;6.53;1.75;;;18.40;74.70;;;;;;5146659;22;20057;31
2022/06/10 07:53:43;;;;;;;7.70;2.45;;;18.40;74.60;;;;;;5015743;28;20053;-95
2022/06/10 07:56:13;;;;;;;8.45;1.98;;;18.50;74.60;;;;;;5009052;28;20052;-95
2022/06/10 07:58:41;;;;;;;5.28;1.60;;;18.60;74.50;;;;;;5027179;28;20058;-95
2022/06/10 08:01:08;;;;;;;7.38;2.47;;;18.60;74.40;;;;;;4998464;28;20029;-96
2022/06/10 08:03:36;;;;;;;7.05;1.63;;;18.60;74.30;;;;;;4994163;28;20058;-94
2022/06/10 08:06:04;;;;;;;9.02;1.85;;;18.70;74.30;;;;;;5031329;28;20077;-96
2022/06/10 08:08:31;;;;;;;6.68;1.98;;;18.80;74.20;;;;;;5100540;22;20118;-96
2022/06/10 08:10:59;;;;;;;7.00;1.90;;;18.80;74.10;;;;;;5005404;28;20073;-95
2022/06/10 08:13:27;;;;;;;8.65;2.00;;;18.90;74.10;;;;;;5004158;28;20031;-96
2022/06/10 08:15:56;;;;;;;6.93;1.90;;;19.00;74.00;;;;;;5154842;23;20033;-94
2022/06/10 08:26:29;;;;;;;8.15;2.10;;;19.30;73.50;;;;;;5153792;22;20083;-95
2022/06/10 08:28:58;;;;;;;8.70;2.20;;;19.40;73.50;;;;;;5064563;28;20052;-96
2022/06/10 08:31:25;;;;;;;7.57;1.73;;;19.50;73.40;;;;;;5052275;28;20072;-96
2022/06/10 08:33:52;;;;;;;6.55;1.70;;;19.50;73.30;;;;;;5073918;28;20111;-95
2022/06/10 08:36:19;;;;;;;7.00;1.95;;;19.60;73.20;;;;;;5128909;23;20061;-95
2022/06/10 08:38:50;;;;;;;6.43;1.70;;;19.70;73.00;;;;;;5015671;28;20054;-94
2022/06/10 08:41:26;;;;;;;5.75;1.60;;;19.80;72.90;;;;;;5002817;28;20050;-91
2022/06/10 08:44:15;;;;;;;4.75;1.58;;;19.90;72.70;;;;;;5004770;28;20046;-90
2022/06/10 08:46:55;;;;;;;8.02;1.80;;;20.00;72.50;;;;;;5018793;28;20394;-92
2022/06/10 08:50:04;;;;;;;5.57;1.70;;;20.10;72.40;;;;;;5014753;28;20506;-90
2022/06/10 08:52:48;;;;;;;7.32;1.95;;;20.20;72.20;;;;;;5018036;28;20038;-90
2022/06/10 08:55:42;;;;;;;5.38;1.35;;;20.30;72.10;;;;;;5016613;28;20104;-91
2022/06/10 08:58:21;;;;;;;10.52;2.03;;;20.40;71.90;;;;;;5032424;28;20041;-91
2022/06/10 09:01:00;;;;;;;8.95;1.80;;;20.40;71.70;;;;;;5032816;28;20504;-91
2022/06/10 09:03:50;;;;;;;8.65;1.85;;;20.50;71.50;;;;;;5030284;28;20406;-90
2022/06/10 09:06:24;;;;;;;8.38;1.85;;;20.60;71.40;;;;;;5028767;28;20041;-92
2022/06/10 09:08:55;;;;;;;12.18;2.40;;;20.70;71.20;;;;;;5033263;28;20054;-90
2022/06/10 09:11:51;;;;;;;6.72;1.80;;;20.80;71.00;;;;;;5022633;28;20046;-91
2022/06/10 09:14:24;;;;;;;11.90;2.40;;;20.90;70.80;;;;;;5007122;28;20499;-89
2022/06/10 09:16:53;;;;;;;6.65;1.60;;;20.90;70.60;;;;;;5007229;28;20064;-92
2022/06/10 09:19:33;;;;;;;7.10;1.85;;;21.00;70.40;;;;;;5029505;28;20103;-90
2022/06/10 09:22:19;;;;;;;8.30;1.77;;;21.10;70.10;;;;;;5029906;28;20434;-90
2022/06/10 09:25:08;;;;;;;7.18;1.77;;;21.20;69.90;;;;;;5013723;28;20168;-90
2022/06/10 09:27:38;;;;;;;7.35;1.73;;;21.20;69.70;;;;;;5013285;28;20069;-89
2022/06/10 09:30:08;;;;;;;6.25;1.70;;;21.30;69.60;;;;;;5032823;28;20512;-92
2022/06/10 09:33:05;;;;;;;7.32;1.73;;;21.20;69.40;;;;;;5023133;28;20084;-92
2022/06/10 09:35:53;;;;;;;6.22;1.80;;;21.20;69.20;;;;;;5019068;28;20045;-90
2022/06/10 09:38:35;;;;;;;6.38;1.80;;;21.30;69.10;;;;;;5004581;28;20064;-91
2022/06/10 09:41:13;;;;;;;11.25;2.10;;;21.30;69.00;;;;;;5014990;28;20050;-91
2022/06/10 09:43:43;;;;;;;7.10;1.50;;;21.30;69.00;;;;;;5022832;28;20081;-92
2022/06/10 09:46:28;;;;;;;7.32;1.55;;;21.30;68.90;;;;;;5033758;28;20569;-94
2022/06/10 09:48:58;;;;;;;5.75;1.67;;;21.30;68.70;;;;;;5013494;28;20052;-92
2022/06/10 09:51:28;;;;;;;7.18;1.60;;;21.30;68.60;;;;;;5014372;28;20514;-94
2022/06/10 09:54:14;;;;;;;6.93;1.63;;;21.30;68.70;;;;;;5014436;28;20049;-92
2022/06/10 09:56:53;;;;;;;6.40;1.50;;;21.30;68.60;;;;;;5017925;28;20053;-93
2022/06/10 10:00:00;;;;;;;9.68;1.75;;;21.30;68.60;;;;;;5013421;28;20096;-92
2022/06/10 10:03:00;;;;;;;6.07;1.30;;;21.40;68.60;;;;;;5013526;28;20446;-92
2022/06/10 10:05:47;;;;;;;6.53;1.70;;;21.30;68.50;;;;;;5029774;28;20137;-93
2022/06/10 10:08:26;;;;;;;6.53;1.60;;;21.40;68.50;;;;;;4937200;29;20411;-92
2022/06/10 10:10:58;;;;;;;7.45;1.67;;;21.40;68.50;;;;;;4953288;29;20074;-91
2022/06/10 10:13:47;;;;;;;4.80;1.30;;;21.40;68.40;;;;;;4952934;28;20059;-93
2022/06/10 10:16:31;;;;;;;5.60;1.60;;;21.50;68.40;;;;;;4947714;29;20071;-93
2022/06/10 10:19:24;;;;;;;4.93;1.38;;;21.60;68.30;;;;;;4919088;29;20047;-93
2022/06/10 10:21:51;;;;;;;5.78;1.42;;;21.70;68.20;;;;;;4934097;29;20048;-92
2022/06/10 10:24:26;;;;;;;6.03;1.50;;;21.70;68.10;;;;;;4934512;29;20134;-94
2022/06/10 10:26:55;;;;;;;6.22;1.52;;;21.80;67.90;;;;;;4937177;29;20110;-92
2022/06/10 10:29:27;;;;;;;6.30;1.70;;;21.90;67.70;;;;;;4953298;29;20106;-93
2022/06/10 10:32:16;;;;;;;5.50;1.30;;;21.90;67.50;;;;;;4953444;29;20128;-91
2022/06/10 10:34:47;;;;;;;6.10;1.45;;;22.00;67.30;;;;;;4952800;29;20290;-91
2022/06/10 10:37:24;;;;;;;5.93;1.70;;;22.10;67.30;;;;;;4952663;29;20108;-91
2022/06/10 10:39:59;;;;;;;5.95;1.58;;;22.10;67.10;;;;;;4955978;28;20074;-92
2022/06/10 10:42:39;;;;;;;4.78;1.50;;;22.20;66.80;;;;;;4932781;29;20053;-91
2022/06/10 10:45:17;;;;;;;5.93;1.30;;;22.40;66.50;;;;;;4969765;28;20431;-92
2022/06/10 10:48:16;;;;;;;4.78;1.05;;;22.40;66.20;;;;;;5015254;28;20045;-93
2022/06/10 10:51:12;;;;;;;6.40;1.50;;;22.50;65.90;;;;;;5008767;28;20057;-94
2022/06/10 10:54:08;;;;;;;7.72;1.60;;;22.50;65.60;;;;;;5013800;28;20133;-90
2022/06/10 10:56:40;;;;;;;7.75;1.50;;;22.60;65.30;;;;;;5029751;28;20058;-92
2022/06/10 10:59:31;;;;;;;5.28;1.20;;;22.60;65.10;;;;;;5019210;28;20049;-93
2022/06/10 11:01:59;;;;;;;6.22;1.30;;;22.70;64.80;;;;;;5025318;28;20042;-92
2022/06/10 11:04:38;;;;;;;6.60;1.40;;;22.80;64.60;;;;;;5025780;28;20050;-93
2022/06/10 11:07:14;;;;;;;4.72;1.40;;;22.80;64.40;;;;;;5012844;28;20046;-91
2022/06/10 11:10:07;;;;;;;5.25;1.40;;;22.80;64.30;;;;;;5013945;28;20038;-92
2022/06/10 11:12:34;;;;;;;5.47;1.25;;;22.80;64.20;;;;;;5012132;28;20125;-93
2022/06/10 11:15:21;;;;;;;3.22;1.02;;;22.80;64.10;;;;;;5013747;28;20046;-94
2022/06/10 11:17:49;;;;;;;5.05;1.20;;;22.90;64.00;;;;;;5015110;28;20046;-92
2022/06/10 11:20:25;;;;;;;5.47;1.40;;;22.90;63.90;;;;;;5025120;28;20053;-93
2022/06/10 11:23:21;;;;;;;6.40;1.38;;;22.90;63.80;;;;;;5024926;28;20041;-93
2022/06/10 11:26:20;;;;;;;6.05;1.23;;;22.90;63.70;;;;;;5021964;28;20053;-92
2022/06/10 11:28:49;;;;;;;5.35;1.30;;;22.90;63.70;;;;;;5034321;28;20096;-93
2022/06/10 11:31:26;;;;;;;5.82;1.48;;;22.90;63.70;;;;;;5028302;28;20560;-93
2022/06/10 11:33:57;;;;;;;5.00;1.40;;;22.80;63.70;;;;;;5016623;28;20464;-92
2022/06/10 11:36:47;;;;;;;3.97;1.20;;;22.90;63.60;;;;;;5016629;28;20456;-93
2022/06/10 11:39:21;;;;;;;4.40;1.40;;;22.80;63.50;;;;;;5016671;28;20086;-95
2022/06/10 11:42:15;;;;;;;7.80;1.20;;;22.80;63.50;;;;;;5018469;28;20050;-92
2022/06/10 11:45:01;;;;;;;5.28;1.48;;;22.90;63.40;;;;;;5035766;28;20056;-91
2022/06/10 11:47:41;;;;;;;7.28;1.52;;;22.80;63.50;;;;;;5035414;28;20049;-92
2022/06/10 11:50:20;;;;;;;6.43;1.35;;;22.80;63.50;;;;;;5030790;28;20049;-90
2022/06/10 11:52:50;;;;;;;4.97;1.17;;;22.80;63.40;;;;;;5030106;28;20054;-91
2022/06/10 11:55:30;;;;;;;6.88;1.65;;;22.80;63.40;;;;;;5014835;28;20510;-89
2022/06/10 12:01:13;;;;;;;;;;;22.80;63.30;;;;;;5016039;28;20042;-90
2022/06/10 12:03:47;;;;;;;3.85;1.25;;;22.80;63.40;;;;;;5015595;28;20380;-89
2022/06/10 12:06:20;;;;;;;;;;;22.80;63.40;;;;;;5029263;28;20559;-89
2022/06/10 12:09:09;;;;;;;5.47;1.38;;;22.80;63.40;;;;;;5033145;28;19928;-91
2022/06/10 12:12:08;;;;;;;4.22;1.00;;;22.80;63.40;;;;;;5020290;28;20477;-91
2022/06/10 12:14:42;;;;;;;5.00;1.33;;;22.80;63.30;;;;;;4935795;29;20039;-90
2022/06/10 12:17:31;;;;;;;6.07;1.70;;;22.80;63.30;;;;;;4953698;28;20538;-90
2022/06/10 12:20:12;;;;;;;4.40;1.38;;;22.80;63.30;;;;;;4953602;28;20514;-90
2022/06/10 12:22:39;;;;;;;7.30;1.45;;;22.80;63.30;;;;;;4969348;28;20514;-90
2022/06/10 12:25:28;;;;;;;8.27;1.20;;;22.80;63.30;;;;;;4953291;29;20054;-91
2022/06/10 12:28:33;;;;;;;5.30;1.38;;;22.70;63.30;;;;;;4953602;29;20047;-90
2022/06/10 12:31:14;;;;;;;7.93;1.45;;;22.80;63.30;;;;;;4935739;29;20051;-92
2022/06/10 12:33:57;;;;;;;5.90;1.40;;;22.70;63.30;;;;;;4953866;28;20151;-91
2022/06/10 12:36:37;;;;;;;4.03;1.15;;;22.70;63.30;;;;;;4934760;29;20055;-90
2022/06/10 12:39:14;;;;;;;5.22;1.70;;;22.70;63.30;;;;;;4951458;28;20055;-91
2022/06/10 12:41:46;;;;;;;8.25;1.58;;;22.70;63.30;;;;;;4954246;28;20051;-91
2022/06/10 12:44:22;;;;;;;4.63;1.20;;;22.70;63.30;;;;;;4953032;28;20051;-90
2022/06/10 12:46:55;;;;;;;5.07;1.23;;;22.70;63.30;;;;;;4969808;28;20314;-91
2022/06/10 12:49:40;;;;;;;6.82;1.60;;;22.70;63.30;;;;;;4977033;28;20082;-90
2022/06/10 12:52:22;;;;;;;3.97;1.08;;;22.70;63.20;;;;;;5019091;28;20053;-92
2022/06/10 12:54:56;;;;;;;5.88;1.42;;;22.70;63.20;;;;;;4997640;28;20414;-91
2022/06/10 12:57:39;;;;;;;4.68;1.38;;;22.70;63.20;;;;;;5010981;28;20073;-91
2022/06/10 13:00:32;;;;;;;4.28;1.15;;;22.70;63.20;;;;;;5018176;28;20049;-89
2022/06/10 13:03:11;;;;;;;3.30;1.00;;;22.70;63.20;;;;;;5030347;28;20052;-91
2022/06/10 13:05:39;;;;;;;3.90;1.02;;;22.70;63.30;;;;;;5019918;28;20061;-90
2022/06/10 13:08:34;;;;;;;5.30;1.30;;;22.60;63.30;;;;;;5015739;28;20395;-91
2022/06/10 13:11:03;;;;;;;8.20;1.50;;;22.70;63.30;;;;;;5020408;28;20048;-90
2022/06/10 13:13:30;;;;;;;5.93;1.65;;;22.60;63.30;;;;;;5029204;28;20042;-88
2022/06/10 13:16:36;;;;;;;4.50;1.25;;;22.70;63.30;;;;;;5013038;28;20050;-90
2022/06/10 13:19:04;;;;;;;5.57;1.58;;;22.70;63.40;;;;;;4993476;28;20052;-91
2022/06/10 13:21:34;;;;;;;4.93;1.27;;;22.70;63.40;;;;;;5016254;28;20453;-88
2022/06/10 13:24:12;;;;;;;5.57;1.23;;;22.70;63.40;;;;;;5030764;28;20111;-89
2022/06/10 13:26:39;;;;;;;5.70;1.38;;;22.70;63.40;;;;;;5011697;28;20069;-89
2022/06/10 13:29:11;;;;;;;5.85;1.30;;;22.70;63.40;;;;;;5017683;28;20050;-89
2022/06/10 13:31:53;;;;;;;5.72;1.63;;;22.80;63.40;;;;;;5021042;28;20073;-89
2022/06/10 13:34:22;;;;;;;5.15;1.50;;;22.80;63.40;;;;;;5029268;28;20073;-90
2022/06/10 13:37:02;;;;;;;7.03;1.50;;;22.80;63.30;;;;;;4997180;28;20061;-90
2022/06/10 13:39:36;;;;;;;5.63;1.38;;;22.80;63.40;;;;;;5029096;28;20049;-88
2022/06/10 13:42:05;;;;;;;5.45;1.60;;;22.80;63.40;;;;;;5012687;28;20053;-90
2022/06/10 13:45:03;;;;;;;6.07;1.40;;;22.80;63.50;;;;;;5025264;28;20076;-89
2022/06/10 13:47:32;;;;;;;6.47;1.40;;;22.80;63.40;;;;;;5024773;28;20072;-89